Time;durP1;ratioP1;P1;durP2;ratioP2;P2;SDS_P1;SDS_P2;PMS_P1;PMS_P2;Temp;Humidity;BMP_temperature;BMP_pressure;BME280_temperature;BME280_humidity;BME280_pressure;Samples;Min_cycle;Max_cycle;Signal;HPM_P1;HPM_P2
2023/04/13 00:02:19;;;;;;;18.20;12.43;;;;;;;;;;5031218;28;20701;-85
2023/04/13 00:04:50;;;;;;;18.37;12.77;;;;;;;;;;5017463;28;20231;-86
2023/04/13 00:07:21;;;;;;;17.10;11.63;;;;;;;;;;5000501;28;20227;-85
2023/04/13 00:09:49;;;;;;;17.10;11.37;;;;;;;;;;5018217;28;20224;-85
2023/04/13 00:12:15;;;;;;;16.40;11.57;;;;;;;;;;5031020;28;20284;-85
2023/04/13 00:14:43;;;;;;;19.37;11.87;;;;;;;;;;5001446;28;20224;-83
2023/04/13 00:17:14;;;;;;;18.20;11.87;;;;;;;;;;5034412;28;20216;-84
2023/04/13 00:19:46;;;;;;;15.63;12.33;;;;;;;;;;5019117;28;20651;-86
2023/04/13 00:22:16;;;;;;;21.23;11.63;;;;;;;;;;5002773;28;20307;-85
2023/04/13 00:24:42;;;;;;;15.73;10.60;;;;;;;;;;5018256;28;20285;-85
2023/04/13 00:27:09;;;;;;;13.17;10.27;;;;;;;;;;4983005;28;20253;-86
2023/04/13 00:29:35;;;;;;;18.07;10.53;;;;;;;;;;5014707;28;20291;-86
2023/04/13 00:32:06;;;;;;;19.63;10.13;;;;;;;;;;5016359;28;20247;-85
2023/04/13 00:34:36;;;;;;;15.43;10.97;;;;;;;;;;5018837;28;20225;-85
2023/04/13 00:37:06;;;;;;;21.70;11.63;;;;;;;;;;5004323;28;20231;-87
2023/04/13 00:39:36;;;;;;;59.87;10.63;;;;;;;;;;5037546;28;20240;-86
2023/04/13 00:42:02;;;;;;;149.60;12.60;;;;;;;;;;5021444;28;20236;-86
2023/04/13 00:44:29;;;;;;;95.80;11.93;;;;;;;;;;5050760;28;20221;-86
2023/04/13 00:46:58;;;;;;;292.30;22.13;;;;;;;;;;5006103;28;20668;-85
2023/04/13 00:49:26;;;;;;;46.60;10.27;;;;;;;;;;5053463;28;20245;-87
2023/04/13 00:51:51;;;;;;;43.93;9.80;;;;;;;;;;5007442;28;20284;-84
2023/04/13 00:54:22;;;;;;;30.47;10.97;;;;;;;;;;5011899;28;20204;-85
2023/04/13 00:56:48;;;;;;;14.97;10.73;;;;;;;;;;5015155;28;20231;-86
2023/04/13 00:59:14;;;;;;;12.13;9.80;;;;;;;;;;5044703;28;20594;-86
2023/04/13 01:01:49;;;;;;;12.93;9.57;;;;;;;;;;5010094;28;20687;-86
2023/04/13 01:04:18;;;;;;;11.27;9.20;;;;;;;;;;5047404;28;20226;-85
2023/04/13 01:06:53;;;;;;;14.57;10.23;;;;;;;;;;5029965;28;20223;-86
2023/04/13 01:09:25;;;;;;;17.77;9.63;;;;;;;;;;5032247;28;20347;-85
2023/04/13 01:12:01;;;;;;;15.80;9.73;;;;;;;;;;5026644;28;20315;-84
2023/04/13 01:14:46;;;;;;;15.23;10.47;;;;;;;;;;5054490;28;20261;-86
2023/04/13 01:17:20;;;;;;;19.93;11.20;;;;;;;;;;5006965;28;20755;-84
2023/04/13 01:20:08;;;;;;;17.00;11.13;;;;;;;;;;5027880;28;20228;-84
2023/04/13 01:22:34;;;;;;;16.03;10.10;;;;;;;;;;5009817;28;20298;-85
2023/04/13 01:25:29;;;;;;;12.30;9.77;;;;;;;;;;5008886;28;20227;-86
2023/04/13 01:27:59;;;;;;;15.43;10.50;;;;;;;;;;5037748;28;20325;-85
2023/04/13 01:30:27;;;;;;;13.97;10.73;;;;;;;;;;5041577;28;20758;-85
2023/04/13 01:32:54;;;;;;;14.33;9.93;;;;;;;;;;5026622;28;20230;-85
2023/04/13 01:35:24;;;;;;;14.67;9.80;;;;;;;;;;5010148;28;20259;-84
2023/04/13 01:37:51;;;;;;;15.50;10.70;;;;;;;;;;5002804;28;20205;-84
2023/04/13 01:40:19;;;;;;;20.40;13.77;;;;;;;;;;5037015;28;20224;-85
2023/04/13 01:42:51;;;;;;;25.10;14.90;;;;;;;;;;5008583;28;20312;-85
2023/04/13 01:45:23;;;;;;;24.97;15.20;;;;;;;;;;5053611;28;20226;-85
2023/04/13 01:48:05;;;;;;;29.83;17.10;;;;;;;;;;5007284;28;20407;-85
2023/04/13 01:50:53;;;;;;;30.70;17.53;;;;;;;;;;5021868;28;20220;-85
2023/04/13 01:53:37;;;;;;;26.60;17.70;;;;;;;;;;5001197;28;20220;-86
2023/04/13 01:56:04;;;;;;;31.53;20.03;;;;;;;;;;5017828;28;20216;-84
2023/04/13 01:58:35;;;;;;;35.93;19.63;;;;;;;;;;5002329;28;20239;-85
2023/04/13 02:01:09;;;;;;;38.80;19.07;;;;;;;;;;5020023;28;20230;-85
2023/04/13 02:03:41;;;;;;;39.27;20.80;;;;;;;;;;5022631;28;20248;-84
2023/04/13 02:06:08;;;;;;;32.67;20.43;;;;;;;;;;5020177;28;20660;-85
2023/04/13 02:08:40;;;;;;;34.83;21.13;;;;;;;;;;5005528;28;20247;-85
2023/04/13 02:11:09;;;;;;;38.67;22.17;;;;;;;;;;4990635;28;20696;-85
2023/04/13 02:13:34;;;;;;;34.53;21.13;;;;;;;;;;5006047;28;20285;-84
2023/04/13 02:16:01;;;;;;;41.10;23.00;;;;;;;;;;4987484;28;20245;-85
2023/04/13 02:18:30;;;;;;;37.70;22.57;;;;;;;;;;5004592;28;20227;-85
2023/04/13 02:21:06;;;;;;;43.27;23.17;;;;;;;;;;5005078;28;20224;-86
2023/04/13 02:23:33;;;;;;;42.37;23.63;;;;;;;;;;5017006;28;20226;-85
2023/04/13 02:26:01;;;;;;;44.10;25.70;;;;;;;;;;5017986;28;20233;-85
2023/04/13 02:28:29;;;;;;;47.50;25.13;;;;;;;;;;5044147;28;20231;-85
2023/04/13 02:31:02;;;;;;;44.67;25.13;;;;;;;;;;5017906;28;20228;-85
2023/04/13 02:33:31;;;;;;;48.30;25.97;;;;;;;;;;5022455;28;20246;-86
2023/04/13 02:35:57;;;;;;;46.23;24.93;;;;;;;;;;5005897;28;20224;-86
2023/04/13 02:38:27;;;;;;;42.83;24.57;;;;;;;;;;5022589;28;20815;-86
2023/04/13 02:40:58;;;;;;;50.73;26.53;;;;;;;;;;5023897;28;20697;-85
2023/04/13 02:43:25;;;;;;;55.00;25.73;;;;;;;;;;5038041;28;20235;-85
2023/04/13 02:45:54;;;;;;;46.23;23.47;;;;;;;;;;5004096;28;20339;-86
2023/04/13 02:48:25;;;;;;;41.83;24.90;;;;;;;;;;5017718;28;20231;-86
2023/04/13 02:50:55;;;;;;;42.63;25.17;;;;;;;;;;5012795;28;20255;-85
2023/04/13 02:53:24;;;;;;;51.03;25.13;;;;;;;;;;5025465;28;20573;-84
2023/04/13 02:55:55;;;;;;;50.67;24.93;;;;;;;;;;5033230;28;20204;-84
2023/04/13 02:58:22;;;;;;;52.57;26.20;;;;;;;;;;5015163;28;20260;-84
2023/04/13 03:00:53;;;;;;;54.83;27.10;;;;;;;;;;5030380;28;20220;-86
2023/04/13 03:03:24;;;;;;;56.07;28.00;;;;;;;;;;5024002;28;20315;-87
2023/04/13 03:05:50;;;;;;;60.37;28.73;;;;;;;;;;5006668;28;20247;-85
2023/04/13 03:08:20;;;;;;;56.37;27.70;;;;;;;;;;5008553;28;20224;-86
2023/04/13 03:11:08;;;;;;;58.37;27.70;;;;;;;;;;5026965;28;20219;-86
2023/04/13 03:13:37;;;;;;;65.37;30.97;;;;;;;;;;5040787;28;20224;-84
2023/04/13 03:16:10;;;;;;;60.80;28.27;;;;;;;;;;5024811;28;20634;-85
2023/04/13 03:18:37;;;;;;;62.70;29.17;;;;;;;;;;5024443;28;21079;-86
2023/04/13 03:21:04;;;;;;;64.77;30.03;;;;;;;;;;5007952;28;20240;-84
2023/04/13 03:23:38;;;;;;;67.07;30.17;;;;;;;;;;5041746;28;20208;-85
2023/04/13 03:26:12;;;;;;;69.87;30.27;;;;;;;;;;5007746;28;20292;-84
2023/04/13 03:28:40;;;;;;;73.50;30.83;;;;;;;;;;5010682;28;20250;-85
2023/04/13 03:31:06;;;;;;;73.60;32.13;;;;;;;;;;5022341;28;20250;-86
2023/04/13 03:33:36;;;;;;;70.67;31.20;;;;;;;;;;5008248;28;20222;-87
2023/04/13 03:36:04;;;;;;;67.13;30.20;;;;;;;;;;5003122;28;20224;-86
2023/04/13 03:38:34;;;;;;;78.60;33.27;;;;;;;;;;5022747;28;20220;-87
2023/04/13 03:41:00;;;;;;;69.77;32.47;;;;;;;;;;5019162;28;20232;-86
2023/04/13 03:43:28;;;;;;;68.27;32.73;;;;;;;;;;5036440;28;20342;-86
2023/04/13 03:46:04;;;;;;;71.70;30.97;;;;;;;;;;4987234;28;20219;-78
2023/04/13 03:48:31;;;;;;;69.97;29.90;;;;;;;;;;5015487;28;20220;-81
2023/04/13 03:51:01;;;;;;;72.47;31.83;;;;;;;;;;5000266;28;20306;-80
2023/04/13 03:53:36;;;;;;;67.50;31.17;;;;;;;;;;5031354;28;21060;-78
2023/04/13 03:56:01;;;;;;;62.87;31.27;;;;;;;;;;5014056;28;20626;-78
2023/04/13 03:58:30;;;;;;;66.57;30.30;;;;;;;;;;5030253;28;20255;-79
2023/04/13 04:00:56;;;;;;;68.00;29.40;;;;;;;;;;5015205;28;20228;-78
2023/04/13 04:03:37;;;;;;;62.47;29.47;;;;;;;;;;5033637;28;20219;-78
2023/04/13 04:06:06;;;;;;;65.97;30.90;;;;;;;;;;5017885;28;20249;-79
2023/04/13 04:08:33;;;;;;;64.30;30.93;;;;;;;;;;5002449;28;20287;-78
2023/04/13 04:11:03;;;;;;;62.63;29.63;;;;;;;;;;5021857;28;20611;-78
2023/04/13 04:13:29;;;;;;;63.97;29.67;;;;;;;;;;5037178;28;20290;-79
2023/04/13 04:16:05;;;;;;;65.33;30.07;;;;;;;;;;5035459;28;20231;-79
2023/04/13 04:18:34;;;;;;;61.13;29.37;;;;;;;;;;5005635;28;20273;-78
2023/04/13 04:21:01;;;;;;;64.27;30.70;;;;;;;;;;5024683;28;20277;-78
2023/04/13 04:23:28;;;;;;;62.03;30.27;;;;;;;;;;5004972;28;20227;-79
2023/04/13 04:25:58;;;;;;;65.37;31.87;;;;;;;;;;5005800;28;20228;-78
2023/04/13 04:28:37;;;;;;;66.27;31.53;;;;;;;;;;5018953;28;20393;-79
2023/04/13 04:31:09;;;;;;;62.83;30.47;;;;;;;;;;5037083;28;20219;-79
2023/04/13 04:33:39;;;;;;;61.93;31.47;;;;;;;;;;5053459;28;20300;-78
2023/04/13 04:36:07;;;;;;;66.60;32.57;;;;;;;;;;5004008;28;20216;-78
2023/04/13 04:38:39;;;;;;;67.13;31.30;;;;;;;;;;5052051;28;20222;-78
2023/04/13 04:41:12;;;;;;;61.57;30.63;;;;;;;;;;5014863;28;20243;-80
2023/04/13 04:43:39;;;;;;;64.77;30.73;;;;;;;;;;5036925;28;20219;-79
2023/04/13 04:46:06;;;;;;;61.20;30.83;;;;;;;;;;5018658;28;20224;-78
2023/04/13 04:48:36;;;;;;;59.57;31.37;;;;;;;;;;5051814;28;20739;-79
2023/04/13 04:51:02;;;;;;;65.33;32.20;;;;;;;;;;5022081;28;20224;-79
2023/04/13 04:53:35;;;;;;;67.47;31.57;;;;;;;;;;5035357;28;20281;-79
2023/04/13 04:56:05;;;;;;;62.23;32.33;;;;;;;;;;5035447;28;20724;-77
2023/04/13 04:58:44;;;;;;;60.57;30.00;;;;;;;;;;5037245;28;20270;-79
2023/04/13 05:01:10;;;;;;;59.77;30.53;;;;;;;;;;5000776;28;20228;-80
2023/04/13 05:03:36;;;;;;;64.10;32.13;;;;;;;;;;5035091;28;20216;-78
2023/04/13 05:06:21;;;;;;;56.13;30.57;;;;;;;;;;5019576;28;20224;-80
2023/04/13 05:08:49;;;;;;;57.40;30.87;;;;;;;;;;5002441;28;20234;-80
2023/04/13 05:11:15;;;;;;;55.00;29.30;;;;;;;;;;5035659;28;20224;-79
2023/04/13 05:13:41;;;;;;;56.53;30.13;;;;;;;;;;5004001;28;20216;-80
2023/04/13 05:16:20;;;;;;;55.37;28.60;;;;;;;;;;5019292;28;20215;-78
2023/04/13 05:18:46;;;;;;;52.13;27.73;;;;;;;;;;5036189;28;20219;-80
2023/04/13 05:21:23;;;;;;;49.33;27.17;;;;;;;;;;5020427;28;20235;-81
2023/04/13 05:23:56;;;;;;;49.00;26.63;;;;;;;;;;5004168;28;20235;-80
2023/04/13 05:26:24;;;;;;;47.03;24.80;;;;;;;;;;5016201;28;20262;-78
2023/04/13 05:28:50;;;;;;;48.13;25.87;;;;;;;;;;5002395;28;20235;-81
2023/04/13 05:31:16;;;;;;;45.63;25.43;;;;;;;;;;5001895;28;20223;-78
2023/04/13 05:33:43;;;;;;;42.83;24.57;;;;;;;;;;5001544;28;20220;-78
2023/04/13 05:36:09;;;;;;;46.00;23.60;;;;;;;;;;5016845;28;20216;-81
2023/04/13 05:38:37;;;;;;;43.23;24.53;;;;;;;;;;5034692;28;20278;-79
2023/04/13 05:41:06;;;;;;;37.83;22.47;;;;;;;;;;5016631;28;20216;-80
2023/04/13 05:43:33;;;;;;;35.53;21.37;;;;;;;;;;5017144;28;20964;-80
2023/04/13 05:45:59;;;;;;;35.20;21.07;;;;;;;;;;5026987;28;20227;-80
2023/04/13 05:48:25;;;;;;;33.17;20.73;;;;;;;;;;5029260;28;20258;-81
2023/04/13 05:50:58;;;;;;;36.10;19.90;;;;;;;;;;5013692;28;20216;-79
2023/04/13 05:53:27;;;;;;;33.10;19.70;;;;;;;;;;5015028;28;20228;-78
2023/04/13 05:55:54;;;;;;;31.10;19.57;;;;;;;;;;5013416;28;20228;-81
2023/04/13 05:58:20;;;;;;;29.60;17.93;;;;;;;;;;4978657;28;20239;-78
2023/04/13 06:00:51;;;;;;;31.57;18.07;;;;;;;;;;4999594;28;20820;-78
2023/04/13 06:03:26;;;;;;;26.70;17.23;;;;;;;;;;4999533;28;20231;-79
2023/04/13 06:05:51;;;;;;;23.93;15.50;;;;;;;;;;4997404;28;20223;-80
2023/04/13 06:08:17;;;;;;;20.57;13.90;;;;;;;;;;5013829;28;20243;-78
2023/04/13 06:10:43;;;;;;;26.20;15.43;;;;;;;;;;5011485;28;20588;-78
2023/04/13 06:13:09;;;;;;;21.60;13.47;;;;;;;;;;5015151;28;20232;-78
2023/04/13 06:15:35;;;;;;;19.90;12.63;;;;;;;;;;5016297;28;20704;-80
2023/04/13 06:18:01;;;;;;;19.27;12.27;;;;;;;;;;5013936;28;20255;-80
2023/04/13 06:20:27;;;;;;;17.37;12.03;;;;;;;;;;5000829;28;20229;-79
2023/04/13 06:22:55;;;;;;;20.57;11.30;;;;;;;;;;5001143;28;20223;-80
2023/04/13 06:25:24;;;;;;;15.90;10.90;;;;;;;;;;5000326;28;20597;-79
2023/04/13 06:27:53;;;;;;;16.97;10.80;;;;;;;;;;5016875;28;20215;-78
2023/04/13 06:30:20;;;;;;;16.30;10.23;;;;;;;;;;5015668;28;20235;-79
2023/04/13 06:32:50;;;;;;;14.03;8.60;;;;;;;;;;5033565;28;20208;-79
2023/04/13 06:35:19;;;;;;;10.37;8.70;;;;;;;;;;5018553;28;20224;-80
2023/04/13 06:37:47;;;;;;;13.33;8.47;;;;;;;;;;4999423;28;20212;-83
2023/04/13 06:40:19;;;;;;;12.07;8.33;;;;;;;;;;5011423;28;20226;-78
2023/04/13 06:42:55;;;;;;;10.70;7.63;;;;;;;;;;5019857;28;20215;-79
2023/04/13 06:45:31;;;;;;;9.70;6.57;;;;;;;;;;5031393;28;20242;-79
2023/04/13 06:47:59;;;;;;;9.93;6.13;;;;;;;;;;5014789;28;20251;-79
2023/04/13 06:50:25;;;;;;;9.00;5.93;;;;;;;;;;4999105;28;20244;-78
2023/04/13 06:52:54;;;;;;;6.73;5.77;;;;;;;;;;5046010;28;20235;-78
2023/04/13 06:55:21;;;;;;;7.47;5.10;;;;;;;;;;5012629;28;20208;-77
2023/04/13 06:57:50;;;;;;;7.00;5.07;;;;;;;;;;5014836;28;20234;-79
2023/04/13 07:00:16;;;;;;;6.53;4.63;;;;;;;;;;4995120;28;20235;-80
2023/04/13 07:02:46;;;;;;;7.13;4.00;;;;;;;;;;5030972;28;20220;-80
2023/04/13 07:05:14;;;;;;;7.93;4.20;;;;;;;;;;5030783;28;20220;-80
2023/04/13 07:07:45;;;;;;;4.80;4.13;;;;;;;;;;5047504;28;20623;-80
2023/04/13 07:10:11;;;;;;;5.90;4.00;;;;;;;;;;5012424;28;20255;-77
2023/04/13 07:12:37;;;;;;;6.07;3.77;;;;;;;;;;4997220;28;20215;-78
2023/04/13 07:15:07;;;;;;;6.10;3.57;;;;;;;;;;5031241;28;20220;-79
2023/04/13 07:17:33;;;;;;;5.60;3.10;;;;;;;;;;5028884;28;20231;-80
2023/04/13 07:19:58;;;;;;;4.47;3.23;;;;;;;;;;5029233;28;20216;-78
2023/04/13 07:22:24;;;;;;;3.17;2.87;;;;;;;;;;5012466;28;20208;-79
2023/04/13 07:24:51;;;;;;;3.73;2.80;;;;;;;;;;5013763;28;20242;-81
2023/04/13 07:27:19;;;;;;;6.30;2.87;;;;;;;;;;5011226;28;20307;-79
2023/04/13 07:29:45;;;;;;;3.60;2.70;;;;;;;;;;5046375;28;20712;-78
2023/04/13 07:32:18;;;;;;;4.40;2.30;;;;;;;;;;4999181;28;20223;-79
2023/04/13 07:34:44;;;;;;;4.57;2.30;;;;;;;;;;5007236;28;20215;-79
2023/04/13 07:37:13;;;;;;;7.90;2.33;;;;;;;;;;5014607;28;20224;-79
2023/04/13 07:39:42;;;;;;;2.77;2.20;;;;;;;;;;4998493;28;20652;-80
2023/04/13 07:42:07;;;;;;;1.70;1.40;;;;;;;;;;5014529;28;20603;-80
2023/04/13 07:44:47;;;;;;;4.10;1.70;;;;;;;;;;5000481;28;20220;-79
2023/04/13 07:47:13;;;;;;;2.37;1.30;;;;;;;;;;5020631;28;20224;-79
2023/04/13 07:49:41;;;;;;;2.33;1.17;;;;;;;;;;5055358;28;20220;-79
2023/04/13 07:52:14;;;;;;;3.60;1.23;;;;;;;;;;5006713;28;20307;-79
2023/04/13 07:54:40;;;;;;;1.67;1.03;;;;;;;;;;5023573;28;20233;-78
2023/04/13 07:57:07;;;;;;;2.30;1.00;;;;;;;;;;5035252;28;20215;-81
2023/04/13 07:59:37;;;;;;;1.50;0.90;;;;;;;;;;5021383;28;20243;-79
2023/04/13 08:02:03;;;;;;;1.37;0.83;;;;;;;;;;5034586;28;20220;-78
2023/04/13 08:04:32;;;;;;;1.27;0.80;;;;;;;;;;5027893;28;20223;-80
2023/04/13 08:07:07;;;;;;;1.70;1.00;;;;;;;;;;5013656;28;20212;-80
2023/04/13 08:09:38;;;;;;;1.00;0.97;;;;;;;;;;4995632;28;20232;-78
2023/04/13 08:12:03;;;;;;;1.63;0.90;;;;;;;;;;5007153;28;20239;-79
2023/04/13 08:14:31;;;;;;;2.13;0.83;;;;;;;;;;5012566;28;20696;-80
2023/04/13 08:17:04;;;;;;;2.33;1.07;;;;;;;;;;5012941;28;20303;-79
2023/04/13 08:19:32;;;;;;;2.17;0.80;;;;;;;;;;4996752;28;20703;-80
2023/04/13 08:21:58;;;;;;;1.43;0.97;;;;;;;;;;5012479;28;20639;-79
2023/04/13 08:24:24;;;;;;;1.87;0.97;;;;;;;;;;5008859;28;20288;-79
2023/04/13 08:26:54;;;;;;;1.20;0.67;;;;;;;;;;5016408;28;20209;-77
2023/04/13 08:29:20;;;;;;;2.17;0.97;;;;;;;;;;5029532;28;20231;-78
2023/04/13 08:31:46;;;;;;;1.20;0.90;;;;;;;;;;5029953;28;20903;-77
2023/04/13 08:34:14;;;;;;;3.60;2.33;;;;;;;;;;5029279;28;20300;-79
2023/04/13 08:36:39;;;;;;;1.37;0.80;;;;;;;;;;5023561;28;20228;-78
2023/04/13 08:39:09;;;;;;;0.90;0.70;;;;;;;;;;5028707;28;20232;-79
2023/04/13 08:41:41;;;;;;;2.10;0.87;;;;;;;;;;5012321;28;21035;-79
2023/04/13 08:44:10;;;;;;;1.37;0.80;;;;;;;;;;5012816;28;20307;-79
2023/04/13 08:46:48;;;;;;;1.23;0.80;;;;;;;;;;4997547;28;20255;-78
2023/04/13 08:49:18;;;;;;;3.57;0.90;;;;;;;;;;5012055;28;20239;-78
2023/04/13 08:52:04;;;;;;;1.13;0.80;;;;;;;;;;5014090;28;20220;-78
2023/04/13 08:54:30;;;;;;;0.80;0.80;;;;;;;;;;5029112;28;20934;-79
2023/04/13 08:57:01;;;;;;;2.13;0.90;;;;;;;;;;5032828;28;20218;-78
2023/04/13 08:59:28;;;;;;;2.30;0.90;;;;;;;;;;5015452;28;20224;-78
2023/04/13 09:01:56;;;;;;;2.27;1.17;;;;;;;;;;5015840;28;20220;-79
2023/04/13 09:04:27;;;;;;;2.63;2.00;;;;;;;;;;5015859;28;20262;-80
2023/04/13 09:06:56;;;;;;;1.23;1.10;;;;;;;;;;5047504;28;20228;-79
2023/04/13 09:09:26;;;;;;;2.23;1.20;;;;;;;;;;4985075;28;20220;-79
2023/04/13 09:11:52;;;;;;;1.57;0.90;;;;;;;;;;5036995;28;20605;-79
2023/04/13 09:14:19;;;;;;;1.20;1.00;;;;;;;;;;5047515;28;20227;-79
2023/04/13 09:16:46;;;;;;;1.00;0.63;;;;;;;;;;4998872;28;20212;-79
2023/04/13 09:19:31;;;;;;;2.27;0.87;;;;;;;;;;4999452;28;20293;-78
2023/04/13 09:21:57;;;;;;;1.20;0.80;;;;;;;;;;5003491;28;20225;-79
2023/04/13 09:24:27;;;;;;;1.00;0.70;;;;;;;;;;4998475;28;20211;-77
2023/04/13 09:26:53;;;;;;;1.07;0.63;;;;;;;;;;5006126;28;20228;-78
2023/04/13 09:29:20;;;;;;;1.27;0.80;;;;;;;;;;5009856;28;20782;-79
2023/04/13 09:31:46;;;;;;;1.10;0.80;;;;;;;;;;5013051;28;20220;-78
2023/04/13 09:34:12;;;;;;;1.17;0.90;;;;;;;;;;5011734;28;20319;-77
2023/04/13 09:36:41;;;;;;;0.80;0.80;;;;;;;;;;5029436;28;20740;-80
2023/04/13 09:39:07;;;;;;;1.73;0.97;;;;;;;;;;5029432;28;20231;-78
2023/04/13 09:41:45;;;;;;;1.00;0.70;;;;;;;;;;5028095;28;20260;-78
2023/04/13 09:44:19;;;;;;;2.03;1.10;;;;;;;;;;5013460;28;20350;-79
2023/04/13 09:47:00;;;;;;;2.10;1.03;;;;;;;;;;5014802;28;20709;-77
2023/04/13 09:49:41;;;;;;;1.17;1.00;;;;;;;;;;5015009;28;20228;-78
2023/04/13 09:52:23;;;;;;;0.93;0.70;;;;;;;;;;5032583;28;20608;-82
2023/04/13 09:54:50;;;;;;;1.07;0.83;;;;;;;;;;5015493;28;21042;-79
2023/04/13 09:57:25;;;;;;;1.57;1.20;;;;;;;;;;4998850;28;20220;-80
2023/04/13 09:59:51;;;;;;;1.40;1.20;;;;;;;;;;4994320;28;20220;-80
2023/04/13 10:02:19;;;;;;;1.30;1.20;;;;;;;;;;5032642;28;20240;-77
2023/04/13 10:04:45;;;;;;;2.97;1.50;;;;;;;;;;4997971;28;20672;-77
2023/04/13 10:07:12;;;;;;;1.57;1.40;;;;;;;;;;5050279;28;20227;-79
2023/04/13 10:09:43;;;;;;;1.70;1.60;;;;;;;;;;5001216;28;20236;-80
2023/04/13 10:12:12;;;;;;;2.23;1.50;;;;;;;;;;5017345;28;20294;-81
2023/04/13 10:14:41;;;;;;;2.10;1.83;;;;;;;;;;4997906;28;20311;-80
2023/04/13 10:17:11;;;;;;;1.73;1.60;;;;;;;;;;4990386;28;20258;-78
2023/04/13 10:19:47;;;;;;;2.57;1.30;;;;;;;;;;5046007;28;20768;-77
2023/04/13 10:22:13;;;;;;;2.27;1.43;;;;;;;;;;5017840;28;20231;-78
2023/04/13 10:24:39;;;;;;;2.13;1.30;;;;;;;;;;5030769;28;20212;-81
2023/04/13 10:27:18;;;;;;;1.43;1.30;;;;;;;;;;5030880;28;20270;-78
2023/04/13 10:29:46;;;;;;;1.60;1.33;;;;;;;;;;5015735;28;20244;-80
2023/04/13 10:32:25;;;;;;;1.83;1.50;;;;;;;;;;5000262;28;20615;-81
2023/04/13 10:34:51;;;;;;;1.60;1.33;;;;;;;;;;4998667;28;20223;-79
2023/04/13 10:37:18;;;;;;;1.23;1.10;;;;;;;;;;5015607;28;20311;-78
2023/04/13 10:39:45;;;;;;;1.80;1.20;;;;;;;;;;5014141;28;20331;-78
2023/04/13 10:42:12;;;;;;;1.50;1.10;;;;;;;;;;5030659;28;20239;-81
2023/04/13 10:44:53;;;;;;;1.30;1.20;;;;;;;;;;5031333;28;20657;-77
2023/04/13 10:47:21;;;;;;;1.90;1.40;;;;;;;;;;5014271;28;20243;-78
2023/04/13 10:49:47;;;;;;;1.63;1.20;;;;;;;;;;5017840;28;20742;-74
2023/04/13 10:52:18;;;;;;;1.50;1.20;;;;;;;;;;5008005;28;20220;-79
2023/04/13 10:54:47;;;;;;;2.80;1.20;;;;;;;;;;5010616;28;20355;-78
2023/04/13 10:57:23;;;;;;;1.30;1.20;;;;;;;;;;5017764;28;20242;-78
2023/04/13 11:00:11;;;;;;;1.30;1.17;;;;;;;;;;5016540;28;20223;-77
2023/04/13 11:03:05;;;;;;;1.73;1.10;;;;;;;;;;5006128;28;20224;-78
2023/04/13 11:05:39;;;;;;;1.10;1.00;;;;;;;;;;4990452;28;20491;-78
2023/04/13 11:08:08;;;;;;;1.10;0.97;;;;;;;;;;5024060;28;20320;-81
2023/04/13 11:10:34;;;;;;;1.53;1.00;;;;;;;;;;5037456;28;20310;-81
2023/04/13 11:13:03;;;;;;;2.03;1.40;;;;;;;;;;5035157;28;20216;-78
2023/04/13 11:15:33;;;;;;;1.63;1.20;;;;;;;;;;5038375;28;20382;-78
2023/04/13 11:18:01;;;;;;;1.30;1.20;;;;;;;;;;4996068;28;20583;-80
2023/04/13 11:20:35;;;;;;;1.63;1.30;;;;;;;;;;5026497;28;20290;-80
2023/04/13 11:23:02;;;;;;;2.53;1.50;;;;;;;;;;5037675;28;20254;-79
2023/04/13 11:25:29;;;;;;;1.60;1.33;;;;;;;;;;5018960;28;20557;-79
2023/04/13 11:28:01;;;;;;;1.93;1.40;;;;;;;;;;5008346;28;20235;-81
2023/04/13 11:30:30;;;;;;;1.60;1.30;;;;;;;;;;5011977;28;20228;-78
2023/04/13 11:32:58;;;;;;;2.67;1.40;;;;;;;;;;5022247;28;20619;-78
2023/04/13 11:35:24;;;;;;;1.50;1.23;;;;;;;;;;5026474;28;20236;-79
2023/04/13 11:37:54;;;;;;;2.20;1.40;;;;;;;;;;5014396;28;20216;-78
2023/04/13 11:40:26;;;;;;;1.60;1.40;;;;;;;;;;5015122;28;20220;-78
2023/04/13 11:42:57;;;;;;;3.03;1.60;;;;;;;;;;5022859;28;20220;-80
2023/04/13 11:45:34;;;;;;;1.63;1.43;;;;;;;;;;5054129;28;25781;-80
2023/04/13 11:48:04;;;;;;;1.57;1.47;;;;;;;;;;5019934;28;20246;-81
2023/04/13 11:50:32;;;;;;;1.83;1.37;;;;;;;;;;5034967;28;20236;-78
2023/04/13 11:52:58;;;;;;;2.13;1.80;;;;;;;;;;5005662;28;20288;-79
2023/04/13 11:55:24;;;;;;;2.77;1.50;;;;;;;;;;5003731;28;20223;-76
2023/04/13 11:57:53;;;;;;;2.73;1.60;;;;;;;;;;5015178;28;20307;-79
2023/04/13 12:00:25;;;;;;;1.40;1.30;;;;;;;;;;5005287;28;20219;-80
2023/04/13 12:02:55;;;;;;;3.83;1.70;;;;;;;;;;5004345;28;20223;-77
2023/04/13 12:05:28;;;;;;;2.30;1.47;;;;;;;;;;5004778;28;20216;-79
2023/04/13 12:07:57;;;;;;;2.17;1.60;;;;;;;;;;5036399;28;20628;-78
2023/04/13 12:10:24;;;;;;;1.80;1.53;;;;;;;;;;5025559;28;20281;-78
2023/04/13 12:13:20;;;;;;;2.20;1.70;;;;;;;;;;4994286;28;20334;-77
2023/04/13 12:15:46;;;;;;;2.80;1.60;;;;;;;;;;4953801;28;20313;-79
2023/04/13 12:18:12;;;;;;;1.90;1.60;;;;;;;;;;5049561;28;20219;-77
2023/04/13 12:20:39;;;;;;;2.17;1.33;;;;;;;;;;5006259;28;20231;-79
2023/04/13 12:23:21;;;;;;;2.33;1.47;;;;;;;;;;5036675;28;20216;-77
2023/04/13 12:25:58;;;;;;;2.63;1.30;;;;;;;;;;5045841;28;20223;-79
2023/04/13 12:28:34;;;;;;;1.50;1.30;;;;;;;;;;5011469;28;20330;-76
2023/04/13 12:31:08;;;;;;;1.50;1.40;;;;;;;;;;5041750;28;20598;-77
2023/04/13 12:33:37;;;;;;;1.73;1.40;;;;;;;;;;5045637;28;20234;-79
2023/04/13 12:36:11;;;;;;;1.40;1.30;;;;;;;;;;5041290;28;20240;-80
2023/04/13 12:38:36;;;;;;;1.33;1.20;;;;;;;;;;5029747;28;20220;-78
2023/04/13 12:41:05;;;;;;;2.17;1.40;;;;;;;;;;5027303;28;20224;-80
2023/04/13 12:43:31;;;;;;;1.43;1.33;;;;;;;;;;5029978;28;20224;-82
2023/04/13 12:46:02;;;;;;;1.97;1.40;;;;;;;;;;5037046;28;20258;-78
2023/04/13 12:48:30;;;;;;;1.97;1.40;;;;;;;;;;5022248;28;20232;-80
2023/04/13 12:50:56;;;;;;;2.57;1.53;;;;;;;;;;5021785;28;20247;-80
2023/04/13 12:53:26;;;;;;;2.50;1.63;;;;;;;;;;5005233;28;20262;-78
2023/04/13 12:55:52;;;;;;;2.30;1.30;;;;;;;;;;5028168;28;20306;-79
2023/04/13 12:58:17;;;;;;;1.50;1.40;;;;;;;;;;5034176;28;20614;-79
2023/04/13 13:00:43;;;;;;;1.60;1.50;;;;;;;;;;5000995;28;20291;-79
2023/04/13 13:03:10;;;;;;;1.60;1.13;;;;;;;;;;5031565;28;20235;-77
2023/04/13 13:05:38;;;;;;;2.67;1.40;;;;;;;;;;5015618;28;20610;-77
2023/04/13 13:08:06;;;;;;;2.03;1.47;;;;;;;;;;5016467;28;20236;-78
2023/04/13 13:10:37;;;;;;;1.90;1.00;;;;;;;;;;5015836;28;20758;-78
2023/04/13 13:13:05;;;;;;;1.97;1.10;;;;;;;;;;5015834;28;20220;-78
2023/04/13 13:15:31;;;;;;;2.10;1.20;;;;;;;;;;5048877;28;20216;-77
2023/04/13 13:17:56;;;;;;;1.10;1.00;;;;;;;;;;4997064;28;20243;-78
2023/04/13 13:20:24;;;;;;;1.33;1.00;;;;;;;;;;5030144;28;20231;-78
2023/04/13 13:22:52;;;;;;;1.37;1.27;;;;;;;;;;5030838;28;20216;-78
2023/04/13 13:25:18;;;;;;;1.70;1.30;;;;;;;;;;4998666;28;20208;-78
2023/04/13 13:27:43;;;;;;;2.17;1.57;;;;;;;;;;5016911;28;20231;-79
2023/04/13 13:30:13;;;;;;;1.63;1.20;;;;;;;;;;5031871;28;20235;-77
2023/04/13 13:32:40;;;;;;;1.37;1.27;;;;;;;;;;5032207;28;20685;-79
2023/04/13 13:35:09;;;;;;;1.77;1.10;;;;;;;;;;5030578;28;21028;-77
2023/04/13 13:37:38;;;;;;;1.50;1.40;;;;;;;;;;5000840;28;20299;-78
2023/04/13 13:40:11;;;;;;;4.47;2.60;;;;;;;;;;5017065;28;20653;-78
2023/04/13 13:42:37;;;;;;;2.07;1.83;;;;;;;;;;5039953;28;20222;-77
2023/04/13 13:45:03;;;;;;;1.57;1.47;;;;;;;;;;5032073;28;20283;-78
2023/04/13 13:47:29;;;;;;;2.20;1.43;;;;;;;;;;5030252;28;20224;-77
2023/04/13 13:49:54;;;;;;;1.60;1.50;;;;;;;;;;4997189;28;20235;-79
2023/04/13 13:52:29;;;;;;;2.50;1.40;;;;;;;;;;5030782;28;20300;-79
2023/04/13 13:54:57;;;;;;;1.97;1.80;;;;;;;;;;5002004;28;20265;-79
2023/04/13 13:57:23;;;;;;;1.70;1.60;;;;;;;;;;5034695;28;20358;-78
2023/04/13 13:59:51;;;;;;;1.77;1.57;;;;;;;;;;4997681;28;20228;-77
2023/04/13 14:02:19;;;;;;;1.77;1.67;;;;;;;;;;5033871;28;20216;-79
2023/04/13 14:04:45;;;;;;;2.13;1.63;;;;;;;;;;5016589;28;20212;-79
2023/04/13 14:07:10;;;;;;;4.03;1.80;;;;;;;;;;5015034;28;20212;-81
2023/04/13 14:09:38;;;;;;;2.03;1.70;;;;;;;;;;5015018;28;20224;-79
2023/04/13 14:12:06;;;;;;;2.40;1.70;;;;;;;;;;5031859;28;20238;-78
2023/04/13 14:14:32;;;;;;;2.00;1.70;;;;;;;;;;5048978;28;20303;-79
2023/04/13 14:16:57;;;;;;;3.10;1.70;;;;;;;;;;5037400;28;20304;-79
2023/04/13 14:19:25;;;;;;;2.33;1.90;;;;;;;;;;5032488;28;20243;-81
2023/04/13 14:21:52;;;;;;;2.50;1.60;;;;;;;;;;5015430;28;20616;-81
2023/04/13 14:24:17;;;;;;;2.60;1.80;;;;;;;;;;5000557;28;20941;-81
2023/04/13 14:26:43;;;;;;;1.90;1.67;;;;;;;;;;5031839;28;20293;-80
2023/04/13 14:29:08;;;;;;;3.20;1.70;;;;;;;;;;4998271;28;20216;-81
2023/04/13 14:31:36;;;;;;;2.50;1.60;;;;;;;;;;5000919;28;20227;-79
2023/04/13 14:34:07;;;;;;;1.90;1.50;;;;;;;;;;5016892;28;20246;-82
2023/04/13 14:36:36;;;;;;;2.60;1.70;;;;;;;;;;5015493;28;20696;-80
2023/04/13 14:39:04;;;;;;;2.50;1.93;;;;;;;;;;4999715;28;20231;-80
2023/04/13 14:41:29;;;;;;;2.57;2.37;;;;;;;;;;5048774;28;20228;-80
2023/04/13 14:43:57;;;;;;;2.90;2.27;;;;;;;;;;5001737;28;20310;-78
2023/04/13 14:46:27;;;;;;;3.53;2.30;;;;;;;;;;5020272;28;20318;-80